sensor_id;sensor_type;location;lat;lon;timestamp;P1;durP1;ratioP1;P2;durP2;ratioP2
16242;SDS011;11719;51.052;6.982;2023-04-24T00:00:55;0.30;;;0.30;;
16242;SDS011;11719;51.052;6.982;2023-04-24T00:03:22;0.30;;;0.20;;
16242;SDS011;11719;51.052;6.982;2023-04-24T00:05:48;0.30;;;0.20;;
16242;SDS011;11719;51.052;6.982;2023-04-24T00:08:14;0.10;;;0.10;;
16242;SDS011;11719;51.052;6.982;2023-04-24T00:10:40;0.30;;;0.30;;
16242;SDS011;11719;51.052;6.982;2023-04-24T00:13:06;0.20;;;0.17;;
16242;SDS011;11719;51.052;6.982;2023-04-24T00:15:33;0.20;;;0.10;;
16242;SDS011;11719;51.052;6.982;2023-04-24T00:17:58;0.30;;;0.20;;
16242;SDS011;11719;51.052;6.982;2023-04-24T00:20:26;0.10;;;0.10;;
16242;SDS011;11719;51.052;6.982;2023-04-24T00:22:54;0.17;;;0.17;;
16242;SDS011;11719;51.052;6.982;2023-04-24T00:25:20;0.80;;;0.30;;
16242;SDS011;11719;51.052;6.982;2023-04-24T00:27:46;0.40;;;0.40;;
16242;SDS011;11719;51.052;6.982;2023-04-24T00:30:12;0.13;;;0.10;;
16242;SDS011;11719;51.052;6.982;2023-04-24T00:32:38;0.20;;;0.20;;
16242;SDS011;11719;51.052;6.982;2023-04-24T00:35:04;0.20;;;0.20;;
16242;SDS011;11719;51.052;6.982;2023-04-24T00:37:31;0.30;;;0.20;;
16242;SDS011;11719;51.052;6.982;2023-04-24T00:39:57;0.20;;;0.20;;
16242;SDS011;11719;51.052;6.982;2023-04-24T00:42:23;0.10;;;0.10;;
16242;SDS011;11719;51.052;6.982;2023-04-24T00:44:49;0.70;;;0.27;;
16242;SDS011;11719;51.052;6.982;2023-04-24T00:47:15;0.03;;;0.03;;
16242;SDS011;11719;51.052;6.982;2023-04-24T00:49:41;0.33;;;0.20;;
16242;SDS011;11719;51.052;6.982;2023-04-24T00:52:07;0.33;;;0.27;;
16242;SDS011;11719;51.052;6.982;2023-04-24T00:54:34;0.40;;;0.20;;
16242;SDS011;11719;51.052;6.982;2023-04-24T00:57:01;0.40;;;0.20;;
16242;SDS011;11719;51.052;6.982;2023-04-24T00:59:28;0.37;;;0.37;;
16242;SDS011;11719;51.052;6.982;2023-04-24T01:01:55;0.10;;;0.10;;
16242;SDS011;11719;51.052;6.982;2023-04-24T01:04:21;0.23;;;0.13;;
16242;SDS011;11719;51.052;6.982;2023-04-24T01:06:47;0.30;;;0.20;;
16242;SDS011;11719;51.052;6.982;2023-04-24T01:09:15;0.40;;;0.20;;
16242;SDS011;11719;51.052;6.982;2023-04-24T01:11:42;0.37;;;0.20;;
16242;SDS011;11719;51.052;6.982;2023-04-24T01:14:08;0.50;;;0.33;;
16242;SDS011;11719;51.052;6.982;2023-04-24T01:16:35;0.30;;;0.30;;
16242;SDS011;11719;51.052;6.982;2023-04-24T01:19:03;0.30;;;0.30;;
16242;SDS011;11719;51.052;6.982;2023-04-24T01:21:30;0.33;;;0.33;;
16242;SDS011;11719;51.052;6.982;2023-04-24T01:24:03;3.17;;;0.40;;
16242;SDS011;11719;51.052;6.982;2023-04-24T01:26:30;0.47;;;0.30;;
16242;SDS011;11719;51.052;6.982;2023-04-24T01:28:57;0.30;;;0.10;;
16242;SDS011;11719;51.052;6.982;2023-04-24T01:31:23;0.30;;;0.13;;
16242;SDS011;11719;51.052;6.982;2023-04-24T01:33:49;0.87;;;0.47;;
16242;SDS011;11719;51.052;6.982;2023-04-24T01:36:16;0.23;;;0.20;;
16242;SDS011;11719;51.052;6.982;2023-04-24T01:38:43;0.60;;;0.30;;
16242;SDS011;11719;51.052;6.982;2023-04-24T01:41:09;0.63;;;0.30;;
16242;SDS011;11719;51.052;6.982;2023-04-24T01:43:35;0.63;;;0.50;;
16242;SDS011;11719;51.052;6.982;2023-04-24T01:46:01;0.77;;;0.50;;
16242;SDS011;11719;51.052;6.982;2023-04-24T01:48:27;3.17;;;0.87;;
16242;SDS011;11719;51.052;6.982;2023-04-24T01:50:53;1.53;;;0.57;;
16242;SDS011;11719;51.052;6.982;2023-04-24T01:53:19;0.67;;;0.50;;
16242;SDS011;11719;51.052;6.982;2023-04-24T01:55:45;0.53;;;0.30;;
16242;SDS011;11719;51.052;6.982;2023-04-24T01:58:11;2.37;;;1.03;;
16242;SDS011;11719;51.052;6.982;2023-04-24T02:00:37;1.73;;;0.93;;
16242;SDS011;11719;51.052;6.982;2023-04-24T02:03:03;0.50;;;0.50;;
16242;SDS011;11719;51.052;6.982;2023-04-24T02:05:28;1.67;;;0.80;;
16242;SDS011;11719;51.052;6.982;2023-04-24T02:07:54;0.50;;;0.40;;
16242;SDS011;11719;51.052;6.982;2023-04-24T02:10:20;0.83;;;0.53;;
16242;SDS011;11719;51.052;6.982;2023-04-24T02:12:46;1.10;;;0.73;;
16242;SDS011;11719;51.052;6.982;2023-04-24T02:15:11;1.53;;;0.57;;
16242;SDS011;11719;51.052;6.982;2023-04-24T02:17:38;1.97;;;0.77;;
16242;SDS011;11719;51.052;6.982;2023-04-24T02:20:04;1.10;;;0.80;;
16242;SDS011;11719;51.052;6.982;2023-04-24T02:22:32;1.67;;;0.80;;
16242;SDS011;11719;51.052;6.982;2023-04-24T02:24:57;1.37;;;1.03;;
16242;SDS011;11719;51.052;6.982;2023-04-24T02:27:23;1.63;;;1.07;;
16242;SDS011;11719;51.052;6.982;2023-04-24T02:29:49;1.37;;;1.10;;
16242;SDS011;11719;51.052;6.982;2023-04-24T02:32:15;1.30;;;1.00;;
16242;SDS011;11719;51.052;6.982;2023-04-24T02:34:40;1.20;;;0.90;;
16242;SDS011;11719;51.052;6.982;2023-04-24T02:37:06;1.17;;;0.93;;
16242;SDS011;11719;51.052;6.982;2023-04-24T02:39:32;2.13;;;1.43;;
16242;SDS011;11719;51.052;6.982;2023-04-24T02:41:58;2.70;;;1.67;;
16242;SDS011;11719;51.052;6.982;2023-04-24T02:44:23;3.40;;;1.67;;
16242;SDS011;11719;51.052;6.982;2023-04-24T02:46:49;4.30;;;2.00;;
16242;SDS011;11719;51.052;6.982;2023-04-24T02:49:15;3.47;;;1.80;;
16242;SDS011;11719;51.052;6.982;2023-04-24T02:51:41;1.07;;;0.97;;
16242;SDS011;11719;51.052;6.982;2023-04-24T02:54:09;3.30;;;1.80;;
16242;SDS011;11719;51.052;6.982;2023-04-24T02:56:35;5.23;;;2.10;;
16242;SDS011;11719;51.052;6.982;2023-04-24T02:59:01;3.20;;;1.27;;
16242;SDS011;11719;51.052;6.982;2023-04-24T03:01:27;4.70;;;2.03;;
16242;SDS011;11719;51.052;6.982;2023-04-24T03:03:53;3.70;;;1.43;;
16242;SDS011;11719;51.052;6.982;2023-04-24T03:06:19;3.10;;;1.70;;
16242;SDS011;11719;51.052;6.982;2023-04-24T03:08:45;1.00;;;0.73;;
16242;SDS011;11719;51.052;6.982;2023-04-24T03:11:11;3.30;;;1.53;;
16242;SDS011;11719;51.052;6.982;2023-04-24T03:13:37;1.80;;;1.53;;
16242;SDS011;11719;51.052;6.982;2023-04-24T03:16:03;1.67;;;1.47;;
16242;SDS011;11719;51.052;6.982;2023-04-24T03:18:29;2.33;;;1.67;;
16242;SDS011;11719;51.052;6.982;2023-04-24T03:20:54;3.73;;;1.40;;
16242;SDS011;11719;51.052;6.982;2023-04-24T03:23:20;4.43;;;2.13;;
16242;SDS011;11719;51.052;6.982;2023-04-24T03:25:46;3.20;;;1.63;;
16242;SDS011;11719;51.052;6.982;2023-04-24T03:28:13;4.83;;;1.60;;
16242;SDS011;11719;51.052;6.982;2023-04-24T03:30:39;3.73;;;1.80;;
16242;SDS011;11719;51.052;6.982;2023-04-24T03:33:05;3.13;;;1.80;;
16242;SDS011;11719;51.052;6.982;2023-04-24T03:35:31;5.37;;;2.17;;
16242;SDS011;11719;51.052;6.982;2023-04-24T03:37:57;3.47;;;1.97;;
16242;SDS011;11719;51.052;6.982;2023-04-24T03:40:23;2.00;;;1.30;;
16242;SDS011;11719;51.052;6.982;2023-04-24T03:42:48;1.87;;;1.60;;
16242;SDS011;11719;51.052;6.982;2023-04-24T03:45:14;2.83;;;1.70;;
16242;SDS011;11719;51.052;6.982;2023-04-24T03:47:40;2.47;;;1.23;;
16242;SDS011;11719;51.052;6.982;2023-04-24T03:50:06;2.87;;;1.97;;
16242;SDS011;11719;51.052;6.982;2023-04-24T03:52:32;10.07;;;1.50;;
16242;SDS011;11719;51.052;6.982;2023-04-24T03:54:58;5.60;;;2.10;;
16242;SDS011;11719;51.052;6.982;2023-04-24T03:57:23;8.13;;;2.00;;
16242;SDS011;11719;51.052;6.982;2023-04-24T03:59:49;1.47;;;1.23;;
16242;SDS011;11719;51.052;6.982;2023-04-24T04:02:16;2.90;;;2.10;;
16242;SDS011;11719;51.052;6.982;2023-04-24T04:04:42;1.67;;;1.20;;
16242;SDS011;11719;51.052;6.982;2023-04-24T04:07:08;2.73;;;1.80;;
16242;SDS011;11719;51.052;6.982;2023-04-24T04:09:33;2.93;;;2.00;;
16242;SDS011;11719;51.052;6.982;2023-04-24T04:11:59;3.53;;;1.97;;
16242;SDS011;11719;51.052;6.982;2023-04-24T04:14:25;2.33;;;1.87;;
16242;SDS011;11719;51.052;6.982;2023-04-24T04:16:52;2.87;;;1.77;;
16242;SDS011;11719;51.052;6.982;2023-04-24T04:19:18;2.73;;;1.47;;
16242;SDS011;11719;51.052;6.982;2023-04-24T04:21:43;3.90;;;2.27;;
16242;SDS011;11719;51.052;6.982;2023-04-24T04:24:10;2.87;;;1.40;;
16242;SDS011;11719;51.052;6.982;2023-04-24T04:26:37;3.53;;;1.40;;
16242;SDS011;11719;51.052;6.982;2023-04-24T04:29:03;3.67;;;1.77;;
16242;SDS011;11719;51.052;6.982;2023-04-24T04:31:29;3.67;;;2.40;;
16242;SDS011;11719;51.052;6.982;2023-04-24T04:33:55;1.07;;;0.70;;
16242;SDS011;11719;51.052;6.982;2023-04-24T04:36:21;3.10;;;1.73;;
16242;SDS011;11719;51.052;6.982;2023-04-24T04:38:48;2.90;;;1.60;;
16242;SDS011;11719;51.052;6.982;2023-04-24T04:41:14;1.80;;;1.40;;
16242;SDS011;11719;51.052;6.982;2023-04-24T04:43:41;4.30;;;2.33;;
16242;SDS011;11719;51.052;6.982;2023-04-24T04:46:07;3.93;;;1.70;;
16242;SDS011;11719;51.052;6.982;2023-04-24T04:48:35;3.90;;;1.57;;
16242;SDS011;11719;51.052;6.982;2023-04-24T04:51:01;4.03;;;1.73;;
16242;SDS011;11719;51.052;6.982;2023-04-24T04:53:27;1.53;;;1.03;;
16242;SDS011;11719;51.052;6.982;2023-04-24T04:55:53;6.17;;;1.40;;
16242;SDS011;11719;51.052;6.982;2023-04-24T04:58:18;3.10;;;1.90;;
16242;SDS011;11719;51.052;6.982;2023-04-24T05:00:44;2.90;;;1.63;;
16242;SDS011;11719;51.052;6.982;2023-04-24T05:03:11;2.43;;;1.53;;
16242;SDS011;11719;51.052;6.982;2023-04-24T05:05:37;3.47;;;1.33;;
16242;SDS011;11719;51.052;6.982;2023-04-24T05:08:05;2.03;;;1.30;;
16242;SDS011;11719;51.052;6.982;2023-04-24T05:10:35;1.20;;;1.10;;
16242;SDS011;11719;51.052;6.982;2023-04-24T05:13:02;2.93;;;1.60;;
16242;SDS011;11719;51.052;6.982;2023-04-24T05:15:29;1.77;;;1.47;;
16242;SDS011;11719;51.052;6.982;2023-04-24T05:17:55;3.30;;;1.23;;
16242;SDS011;11719;51.052;6.982;2023-04-24T05:20:21;1.80;;;1.27;;
16242;SDS011;11719;51.052;6.982;2023-04-24T05:22:47;2.57;;;1.37;;
16242;SDS011;11719;51.052;6.982;2023-04-24T05:25:13;2.70;;;1.50;;
16242;SDS011;11719;51.052;6.982;2023-04-24T05:27:39;2.30;;;1.47;;
16242;SDS011;11719;51.052;6.982;2023-04-24T05:30:05;3.57;;;1.77;;
16242;SDS011;11719;51.052;6.982;2023-04-24T05:32:32;1.23;;;0.80;;
16242;SDS011;11719;51.052;6.982;2023-04-24T05:34:58;2.40;;;1.77;;
16242;SDS011;11719;51.052;6.982;2023-04-24T05:37:24;1.50;;;1.07;;
16242;SDS011;11719;51.052;6.982;2023-04-24T05:39:49;1.80;;;1.20;;
16242;SDS011;11719;51.052;6.982;2023-04-24T05:42:15;1.80;;;1.30;;
16242;SDS011;11719;51.052;6.982;2023-04-24T05:44:41;2.50;;;1.40;;
16242;SDS011;11719;51.052;6.982;2023-04-24T05:47:07;2.23;;;1.43;;
16242;SDS011;11719;51.052;6.982;2023-04-24T05:49:33;2.10;;;1.30;;
16242;SDS011;11719;51.052;6.982;2023-04-24T05:51:59;1.00;;;0.90;;
16242;SDS011;11719;51.052;6.982;2023-04-24T05:54:25;3.67;;;1.60;;
16242;SDS011;11719;51.052;6.982;2023-04-24T05:56:50;2.20;;;1.07;;
16242;SDS011;11719;51.052;6.982;2023-04-24T05:59:16;1.93;;;1.50;;
16242;SDS011;11719;51.052;6.982;2023-04-24T06:01:42;2.93;;;1.23;;
16242;SDS011;11719;51.052;6.982;2023-04-24T06:04:08;4.67;;;1.77;;
16242;SDS011;11719;51.052;6.982;2023-04-24T06:06:34;1.97;;;1.00;;
16242;SDS011;11719;51.052;6.982;2023-04-24T06:09:01;2.20;;;1.13;;
16242;SDS011;11719;51.052;6.982;2023-04-24T06:11:27;1.97;;;1.43;;
16242;SDS011;11719;51.052;6.982;2023-04-24T06:13:53;1.90;;;1.10;;
16242;SDS011;11719;51.052;6.982;2023-04-24T06:16:19;1.43;;;0.70;;
16242;SDS011;11719;51.052;6.982;2023-04-24T06:18:45;2.23;;;1.10;;
16242;SDS011;11719;51.052;6.982;2023-04-24T06:21:12;1.77;;;1.10;;
16242;SDS011;11719;51.052;6.982;2023-04-24T06:23:38;0.97;;;0.80;;
16242;SDS011;11719;51.052;6.982;2023-04-24T06:26:03;1.43;;;1.00;;
16242;SDS011;11719;51.052;6.982;2023-04-24T06:28:29;1.87;;;1.43;;
16242;SDS011;11719;51.052;6.982;2023-04-24T06:30:55;1.73;;;0.93;;
16242;SDS011;11719;51.052;6.982;2023-04-24T06:33:21;1.13;;;0.90;;
16242;SDS011;11719;51.052;6.982;2023-04-24T06:35:46;1.17;;;0.73;;
16242;SDS011;11719;51.052;6.982;2023-04-24T06:38:12;0.80;;;0.67;;
16242;SDS011;11719;51.052;6.982;2023-04-24T06:40:38;1.27;;;0.77;;
16242;SDS011;11719;51.052;6.982;2023-04-24T06:43:04;1.07;;;0.83;;
16242;SDS011;11719;51.052;6.982;2023-04-24T06:45:31;0.57;;;0.50;;
16242;SDS011;11719;51.052;6.982;2023-04-24T06:47:56;4.33;;;0.60;;
16242;SDS011;11719;51.052;6.982;2023-04-24T06:50:22;2.53;;;0.83;;
16242;SDS011;11719;51.052;6.982;2023-04-24T06:52:48;0.60;;;0.40;;
16242;SDS011;11719;51.052;6.982;2023-04-24T06:55:14;0.87;;;0.53;;
16242;SDS011;11719;51.052;6.982;2023-04-24T06:57:41;0.87;;;0.40;;
16242;SDS011;11719;51.052;6.982;2023-04-24T07:00:07;1.17;;;0.60;;
16242;SDS011;11719;51.052;6.982;2023-04-24T07:02:34;0.33;;;0.30;;
16242;SDS011;11719;51.052;6.982;2023-04-24T07:05:00;0.60;;;0.40;;
16242;SDS011;11719;51.052;6.982;2023-04-24T07:07:26;0.50;;;0.50;;
16242;SDS011;11719;51.052;6.982;2023-04-24T07:09:52;2.10;;;0.70;;
16242;SDS011;11719;51.052;6.982;2023-04-24T07:12:19;0.70;;;0.50;;
16242;SDS011;11719;51.052;6.982;2023-04-24T07:14:46;0.40;;;0.40;;
16242;SDS011;11719;51.052;6.982;2023-04-24T07:17:13;0.40;;;0.40;;
16242;SDS011;11719;51.052;6.982;2023-04-24T07:19:38;0.40;;;0.30;;
16242;SDS011;11719;51.052;6.982;2023-04-24T07:22:04;0.87;;;0.50;;
16242;SDS011;11719;51.052;6.982;2023-04-24T07:24:30;0.23;;;0.23;;
16242;SDS011;11719;51.052;6.982;2023-04-24T07:26:57;0.53;;;0.23;;
16242;SDS011;11719;51.052;6.982;2023-04-24T07:29:24;0.30;;;0.30;;
16242;SDS011;11719;51.052;6.982;2023-04-24T07:31:50;0.40;;;0.33;;
16242;SDS011;11719;51.052;6.982;2023-04-24T07:34:16;0.50;;;0.30;;
16242;SDS011;11719;51.052;6.982;2023-04-24T07:36:41;0.50;;;0.50;;
16242;SDS011;11719;51.052;6.982;2023-04-24T07:39:07;0.60;;;0.30;;
16242;SDS011;11719;51.052;6.982;2023-04-24T07:41:34;0.43;;;0.40;;
16242;SDS011;11719;51.052;6.982;2023-04-24T07:43:59;0.60;;;0.60;;
16242;SDS011;11719;51.052;6.982;2023-04-24T07:46:25;0.67;;;0.40;;
16242;SDS011;11719;51.052;6.982;2023-04-24T07:48:54;0.83;;;0.50;;
16242;SDS011;11719;51.052;6.982;2023-04-24T07:51:20;0.30;;;0.30;;
16242;SDS011;11719;51.052;6.982;2023-04-24T07:53:46;0.40;;;0.27;;
16242;SDS011;11719;51.052;6.982;2023-04-24T07:56:12;1.30;;;0.40;;
16242;SDS011;11719;51.052;6.982;2023-04-24T07:58:38;0.77;;;0.40;;
16242;SDS011;11719;51.052;6.982;2023-04-24T08:01:04;0.10;;;0.10;;
16242;SDS011;11719;51.052;6.982;2023-04-24T08:03:29;0.50;;;0.30;;
16242;SDS011;11719;51.052;6.982;2023-04-24T08:05:55;0.50;;;0.30;;
16242;SDS011;11719;51.052;6.982;2023-04-24T08:08:21;0.77;;;0.40;;
16242;SDS011;11719;51.052;6.982;2023-04-24T08:10:48;1.00;;;0.43;;
16242;SDS011;11719;51.052;6.982;2023-04-24T08:13:14;1.20;;;0.27;;
16242;SDS011;11719;51.052;6.982;2023-04-24T08:15:40;0.50;;;0.50;;
16242;SDS011;11719;51.052;6.982;2023-04-24T08:18:06;0.30;;;0.23;;
16242;SDS011;11719;51.052;6.982;2023-04-24T08:20:32;0.20;;;0.20;;
16242;SDS011;11719;51.052;6.982;2023-04-24T08:22:58;3.27;;;0.60;;
16242;SDS011;11719;51.052;6.982;2023-04-24T08:25:24;0.57;;;0.40;;
16242;SDS011;11719;51.052;6.982;2023-04-24T08:27:50;0.40;;;0.33;;
16242;SDS011;11719;51.052;6.982;2023-04-24T08:30:17;1.27;;;0.30;;
16242;SDS011;11719;51.052;6.982;2023-04-24T08:32:43;0.70;;;0.50;;
16242;SDS011;11719;51.052;6.982;2023-04-24T08:35:09;0.37;;;0.37;;
16242;SDS011;11719;51.052;6.982;2023-04-24T08:37:36;0.20;;;0.20;;
16242;SDS011;11719;51.052;6.982;2023-04-24T08:40:06;0.40;;;0.20;;
16242;SDS011;11719;51.052;6.982;2023-04-24T08:42:39;0.33;;;0.30;;
16242;SDS011;11719;51.052;6.982;2023-04-24T08:45:07;0.67;;;0.47;;
16242;SDS011;11719;51.052;6.982;2023-04-24T08:47:35;0.60;;;0.40;;
16242;SDS011;11719;51.052;6.982;2023-04-24T08:50:03;0.37;;;0.20;;
16242;SDS011;11719;51.052;6.982;2023-04-24T08:52:32;0.63;;;0.60;;
16242;SDS011;11719;51.052;6.982;2023-04-24T08:54:59;1.07;;;0.50;;
16242;SDS011;11719;51.052;6.982;2023-04-24T08:57:26;0.20;;;0.20;;
16242;SDS011;11719;51.052;6.982;2023-04-24T08:59:53;0.87;;;0.50;;
16242;SDS011;11719;51.052;6.982;2023-04-24T09:02:19;0.97;;;0.60;;
16242;SDS011;11719;51.052;6.982;2023-04-24T09:04:46;0.30;;;0.30;;
16242;SDS011;11719;51.052;6.982;2023-04-24T09:07:12;1.73;;;0.77;;
16242;SDS011;11719;51.052;6.982;2023-04-24T09:09:42;0.90;;;0.60;;
16242;SDS011;11719;51.052;6.982;2023-04-24T09:12:08;1.20;;;0.53;;
16242;SDS011;11719;51.052;6.982;2023-04-24T09:14:35;1.17;;;0.70;;
16242;SDS011;11719;51.052;6.982;2023-04-24T09:17:04;1.63;;;0.80;;
16242;SDS011;11719;51.052;6.982;2023-04-24T09:19:31;0.83;;;0.67;;
16242;SDS011;11719;51.052;6.982;2023-04-24T09:21:57;2.97;;;0.97;;
16242;SDS011;11719;51.052;6.982;2023-04-24T09:24:23;0.60;;;0.50;;
16242;SDS011;11719;51.052;6.982;2023-04-24T09:26:49;4.70;;;0.50;;
16242;SDS011;11719;51.052;6.982;2023-04-24T09:29:26;0.90;;;0.60;;
16242;SDS011;11719;51.052;6.982;2023-04-24T09:31:52;1.10;;;0.60;;
16242;SDS011;11719;51.052;6.982;2023-04-24T09:34:27;1.40;;;1.07;;
16242;SDS011;11719;51.052;6.982;2023-04-24T09:36:53;0.70;;;0.60;;
16242;SDS011;11719;51.052;6.982;2023-04-24T09:39:20;0.50;;;0.50;;
16242;SDS011;11719;51.052;6.982;2023-04-24T09:41:47;1.30;;;0.70;;
16242;SDS011;11719;51.052;6.982;2023-04-24T09:44:19;1.77;;;0.80;;
16242;SDS011;11719;51.052;6.982;2023-04-24T09:46:54;0.90;;;0.63;;
16242;SDS011;11719;51.052;6.982;2023-04-24T09:49:26;0.93;;;0.70;;
16242;SDS011;11719;51.052;6.982;2023-04-24T09:52:06;1.50;;;1.03;;
16242;SDS011;11719;51.052;6.982;2023-04-24T09:54:36;2.37;;;0.73;;
16242;SDS011;11719;51.052;6.982;2023-04-24T09:57:02;1.17;;;0.83;;
16242;SDS011;11719;51.052;6.982;2023-04-24T09:59:28;1.17;;;0.77;;
16242;SDS011;11719;51.052;6.982;2023-04-24T10:01:55;1.27;;;0.67;;
16242;SDS011;11719;51.052;6.982;2023-04-24T10:04:24;0.60;;;0.60;;
16242;SDS011;11719;51.052;6.982;2023-04-24T10:06:54;1.77;;;1.13;;
16242;SDS011;11719;51.052;6.982;2023-04-24T10:09:22;3.27;;;0.73;;
16242;SDS011;11719;51.052;6.982;2023-04-24T10:11:51;1.90;;;1.13;;
16242;SDS011;11719;51.052;6.982;2023-04-24T10:14:20;3.30;;;0.97;;
16242;SDS011;11719;51.052;6.982;2023-04-24T10:16:49;1.57;;;1.27;;
16242;SDS011;11719;51.052;6.982;2023-04-24T10:19:16;2.07;;;1.13;;
16242;SDS011;11719;51.052;6.982;2023-04-24T10:21:45;1.50;;;1.20;;
16242;SDS011;11719;51.052;6.982;2023-04-24T10:24:12;3.93;;;1.77;;
16242;SDS011;11719;51.052;6.982;2023-04-24T10:26:41;1.03;;;1.00;;
16242;SDS011;11719;51.052;6.982;2023-04-24T10:29:07;2.20;;;1.00;;
16242;SDS011;11719;51.052;6.982;2023-04-24T10:31:37;1.60;;;0.87;;
16242;SDS011;11719;51.052;6.982;2023-04-24T10:34:07;5.17;;;1.27;;
16242;SDS011;11719;51.052;6.982;2023-04-24T10:36:34;1.93;;;1.23;;
16242;SDS011;11719;51.052;6.982;2023-04-24T10:39:06;2.37;;;1.13;;
16242;SDS011;11719;51.052;6.982;2023-04-24T10:41:37;1.70;;;0.87;;
16242;SDS011;11719;51.052;6.982;2023-04-24T10:44:13;2.13;;;0.90;;
16242;SDS011;11719;51.052;6.982;2023-04-24T10:46:44;1.13;;;0.93;;
16242;SDS011;11719;51.052;6.982;2023-04-24T10:49:13;1.70;;;0.90;;
16242;SDS011;11719;51.052;6.982;2023-04-24T10:51:49;1.90;;;1.20;;
16242;SDS011;11719;51.052;6.982;2023-04-24T10:54:24;1.07;;;0.73;;
16242;SDS011;11719;51.052;6.982;2023-04-24T10:59:46;2.23;;;0.80;;
16242;SDS011;11719;51.052;6.982;2023-04-24T11:02:16;3.47;;;0.83;;
16242;SDS011;11719;51.052;6.982;2023-04-24T11:04:43;0.93;;;0.77;;
16242;SDS011;11719;51.052;6.982;2023-04-24T11:07:10;0.77;;;0.57;;
16242;SDS011;11719;51.052;6.982;2023-04-24T11:09:36;0.80;;;0.57;;
16242;SDS011;11719;51.052;6.982;2023-04-24T11:12:09;1.70;;;0.60;;
16242;SDS011;11719;51.052;6.982;2023-04-24T11:20:05;2.77;;;0.70;;
16242;SDS011;11719;51.052;6.982;2023-04-24T11:22:37;1.73;;;1.13;;
16242;SDS011;11719;51.052;6.982;2023-04-24T11:25:07;2.53;;;0.87;;
16242;SDS011;11719;51.052;6.982;2023-04-24T11:27:43;2.33;;;0.67;;
16242;SDS011;11719;51.052;6.982;2023-04-24T11:30:17;1.43;;;0.60;;
16242;SDS011;11719;51.052;6.982;2023-04-24T11:32:47;0.87;;;0.60;;
16242;SDS011;11719;51.052;6.982;2023-04-24T11:35:22;4.60;;;0.77;;
16242;SDS011;11719;51.052;6.982;2023-04-24T11:37:53;2.07;;;0.77;;
16242;SDS011;11719;51.052;6.982;2023-04-24T11:40:21;1.30;;;0.63;;
16242;SDS011;11719;51.052;6.982;2023-04-24T11:42:48;1.10;;;0.70;;
16242;SDS011;11719;51.052;6.982;2023-04-24T11:47:50;3.47;;;1.10;;
16242;SDS011;11719;51.052;6.982;2023-04-24T11:50:16;2.47;;;1.53;;
16242;SDS011;11719;51.052;6.982;2023-04-24T11:52:45;1.50;;;1.03;;
16242;SDS011;11719;51.052;6.982;2023-04-24T11:57:45;1.40;;;0.90;;
16242;SDS011;11719;51.052;6.982;2023-04-24T12:00:17;1.07;;;0.87;;
16242;SDS011;11719;51.052;6.982;2023-04-24T12:02:48;2.60;;;1.17;;
16242;SDS011;11719;51.052;6.982;2023-04-24T12:05:24;4.83;;;0.87;;
16242;SDS011;11719;51.052;6.982;2023-04-24T12:07:52;3.33;;;1.33;;
16242;SDS011;11719;51.052;6.982;2023-04-24T12:10:26;3.23;;;1.30;;
16242;SDS011;11719;51.052;6.982;2023-04-24T12:12:55;2.10;;;1.23;;
16242;SDS011;11719;51.052;6.982;2023-04-24T12:15:22;1.67;;;0.90;;
16242;SDS011;11719;51.052;6.982;2023-04-24T12:17:53;3.00;;;0.80;;
16242;SDS011;11719;51.052;6.982;2023-04-24T12:20:24;1.30;;;0.83;;
16242;SDS011;11719;51.052;6.982;2023-04-24T12:22:55;4.17;;;1.17;;
16242;SDS011;11719;51.052;6.982;2023-04-24T12:25:23;5.23;;;0.80;;
16242;SDS011;11719;51.052;6.982;2023-04-24T12:27:54;1.73;;;0.90;;
16242;SDS011;11719;51.052;6.982;2023-04-24T12:30:43;0.60;;;0.43;;
16242;SDS011;11719;51.052;6.982;2023-04-24T12:33:17;0.67;;;0.43;;
16242;SDS011;11719;51.052;6.982;2023-04-24T12:35:44;1.97;;;0.80;;
16242;SDS011;11719;51.052;6.982;2023-04-24T12:38:11;1.77;;;0.77;;
16242;SDS011;11719;51.052;6.982;2023-04-24T12:40:38;1.70;;;0.80;;
16242;SDS011;11719;51.052;6.982;2023-04-24T12:43:16;2.00;;;0.53;;
16242;SDS011;11719;51.052;6.982;2023-04-24T12:45:44;1.20;;;0.57;;
16242;SDS011;11719;51.052;6.982;2023-04-24T12:48:10;2.00;;;1.10;;
16242;SDS011;11719;51.052;6.982;2023-04-24T12:50:37;2.13;;;0.87;;
16242;SDS011;11719;51.052;6.982;2023-04-24T12:53:03;1.50;;;0.90;;
16242;SDS011;11719;51.052;6.982;2023-04-24T12:55:29;1.00;;;0.87;;
16242;SDS011;11719;51.052;6.982;2023-04-24T12:57:55;0.87;;;0.60;;
16242;SDS011;11719;51.052;6.982;2023-04-24T13:00:21;4.83;;;1.20;;
16242;SDS011;11719;51.052;6.982;2023-04-24T13:02:47;3.97;;;1.30;;
16242;SDS011;11719;51.052;6.982;2023-04-24T13:05:13;5.17;;;0.80;;
16242;SDS011;11719;51.052;6.982;2023-04-24T13:07:39;3.90;;;1.20;;
16242;SDS011;11719;51.052;6.982;2023-04-24T13:10:05;1.53;;;0.73;;
16242;SDS011;11719;51.052;6.982;2023-04-24T13:12:32;1.43;;;0.80;;
16242;SDS011;11719;51.052;6.982;2023-04-24T13:14:58;2.63;;;1.20;;
16242;SDS011;11719;51.052;6.982;2023-04-24T13:17:24;1.30;;;0.80;;
16242;SDS011;11719;51.052;6.982;2023-04-24T13:19:50;1.97;;;1.10;;
16242;SDS011;11719;51.052;6.982;2023-04-24T13:22:16;2.00;;;0.87;;
16242;SDS011;11719;51.052;6.982;2023-04-24T13:24:46;1.30;;;0.77;;
16242;SDS011;11719;51.052;6.982;2023-04-24T13:27:15;1.33;;;1.23;;
16242;SDS011;11719;51.052;6.982;2023-04-24T13:29:42;4.60;;;1.30;;
16242;SDS011;11719;51.052;6.982;2023-04-24T13:32:08;2.00;;;1.37;;
16242;SDS011;11719;51.052;6.982;2023-04-24T13:34:34;2.87;;;1.00;;
16242;SDS011;11719;51.052;6.982;2023-04-24T13:37:02;1.57;;;1.03;;
16242;SDS011;11719;51.052;6.982;2023-04-24T13:39:28;2.70;;;1.33;;
16242;SDS011;11719;51.052;6.982;2023-04-24T13:41:54;0.97;;;0.70;;
16242;SDS011;11719;51.052;6.982;2023-04-24T13:44:20;2.10;;;0.97;;
16242;SDS011;11719;51.052;6.982;2023-04-24T13:46:48;5.33;;;1.20;;
16242;SDS011;11719;51.052;6.982;2023-04-24T13:49:17;1.30;;;1.00;;
16242;SDS011;11719;51.052;6.982;2023-04-24T13:51:43;2.17;;;0.70;;
16242;SDS011;11719;51.052;6.982;2023-04-24T13:54:10;2.10;;;0.60;;
16242;SDS011;11719;51.052;6.982;2023-04-24T13:56:36;1.63;;;0.83;;
16242;SDS011;11719;51.052;6.982;2023-04-24T13:59:02;1.20;;;0.90;;
16242;SDS011;11719;51.052;6.982;2023-04-24T14:01:28;1.00;;;0.70;;
16242;SDS011;11719;51.052;6.982;2023-04-24T14:03:54;3.90;;;2.00;;
16242;SDS011;11719;51.052;6.982;2023-04-24T14:06:20;3.90;;;1.17;;
16242;SDS011;11719;51.052;6.982;2023-04-24T14:08:48;1.03;;;0.90;;
16242;SDS011;11719;51.052;6.982;2023-04-24T14:11:15;1.60;;;0.70;;
16242;SDS011;11719;51.052;6.982;2023-04-24T14:13:42;1.47;;;1.07;;
16242;SDS011;11719;51.052;6.982;2023-04-24T14:16:08;1.90;;;1.00;;
16242;SDS011;11719;51.052;6.982;2023-04-24T14:18:35;0.87;;;0.67;;
16242;SDS011;11719;51.052;6.982;2023-04-24T14:21:01;1.97;;;1.10;;
16242;SDS011;11719;51.052;6.982;2023-04-24T14:23:30;2.10;;;0.90;;
16242;SDS011;11719;51.052;6.982;2023-04-24T14:25:56;3.60;;;0.90;;
16242;SDS011;11719;51.052;6.982;2023-04-24T14:28:23;3.13;;;1.20;;
16242;SDS011;11719;51.052;6.982;2023-04-24T14:30:50;1.80;;;1.00;;
16242;SDS011;11719;51.052;6.982;2023-04-24T14:33:16;1.33;;;0.97;;
16242;SDS011;11719;51.052;6.982;2023-04-24T14:35:42;2.70;;;0.90;;
16242;SDS011;11719;51.052;6.982;2023-04-24T14:38:08;1.20;;;1.10;;
16242;SDS011;11719;51.052;6.982;2023-04-24T14:40:35;2.60;;;1.00;;
16242;SDS011;11719;51.052;6.982;2023-04-24T14:43:01;0.60;;;0.57;;
16242;SDS011;11719;51.052;6.982;2023-04-24T14:45:27;1.57;;;1.03;;
16242;SDS011;11719;51.052;6.982;2023-04-24T14:47:53;1.90;;;0.80;;
16242;SDS011;11719;51.052;6.982;2023-04-24T14:50:19;1.43;;;0.80;;
16242;SDS011;11719;51.052;6.982;2023-04-24T14:52:45;1.30;;;1.00;;
16242;SDS011;11719;51.052;6.982;2023-04-24T14:55:11;1.87;;;0.80;;
16242;SDS011;11719;51.052;6.982;2023-04-24T14:57:37;1.63;;;0.80;;
16242;SDS011;11719;51.052;6.982;2023-04-24T15:00:04;1.63;;;1.10;;